createdAt,value
2023-04-10T00:02:11.906Z,41.67
2023-04-10T00:07:17.021Z,42.03
2023-04-10T00:12:20.627Z,34.08
2023-04-10T00:17:24.025Z,38.35
2023-04-10T00:22:29.082Z,40.83
2023-04-10T00:27:32.450Z,38.95
2023-04-10T00:32:35.889Z,36.15
2023-04-10T00:37:40.975Z,40.42
2023-04-10T00:42:44.844Z,40.92
2023-04-10T00:47:48.340Z,43.35
2023-04-10T00:52:53.228Z,37.08
2023-04-10T00:57:58.153Z,34.00
2023-04-10T01:03:02.253Z,35.33
2023-04-10T01:08:13.608Z,32.47
2023-04-10T01:13:24.396Z,33.95
2023-04-10T01:18:34.799Z,34.90
2023-04-10T01:23:58.809Z,36.42
2023-04-10T01:34:11.442Z,36.72
2023-04-10T01:39:15.932Z,36.13
2023-04-10T01:44:26.098Z,34.88
2023-04-10T01:49:31.398Z,36.05
2023-04-10T01:54:35.720Z,36.45
2023-04-10T01:59:40.753Z,35.55
2023-04-10T02:04:46.563Z,31.17
2023-04-10T02:09:59.505Z,34.65
2023-04-10T02:15:06.560Z,33.50
2023-04-10T02:20:11.717Z,31.25
2023-04-10T02:25:15.882Z,38.88
2023-04-10T02:30:20.777Z,51.97
2023-04-10T02:35:24.153Z,77.55
2023-04-10T02:40:27.538Z,85.05
2023-04-10T02:45:33.860Z,69.75
2023-04-10T02:50:37.239Z,55.75
2023-04-10T02:55:41.883Z,50.78
2023-04-10T03:00:50.787Z,45.50
2023-04-10T03:05:54.545Z,45.78
2023-04-10T03:10:57.981Z,38.65
2023-04-10T03:16:02.719Z,41.67
2023-04-10T03:21:06.696Z,43.85
2023-04-10T03:26:10.175Z,43.80
2023-04-10T03:31:14.937Z,45.35
2023-04-10T03:36:18.692Z,40.08
2023-04-10T03:41:25.454Z,35.08
2023-04-10T03:46:31.435Z,37.28
2023-04-10T03:51:34.848Z,42.58
2023-04-10T03:56:38.209Z,36.17
2023-04-10T04:01:43.318Z,38.70
2023-04-10T04:06:47.081Z,45.38
2023-04-10T04:11:50.428Z,43.13
2023-04-10T04:16:55.340Z,41.80
2023-04-10T04:22:00.390Z,43.17
2023-04-10T04:27:03.819Z,42.78
2023-04-10T04:32:09.055Z,43.17
2023-04-10T04:37:12.468Z,42.63
2023-04-10T04:42:15.923Z,43.22
2023-04-10T04:47:20.644Z,46.28
2023-04-10T04:52:24.212Z,42.85
2023-04-10T04:57:27.607Z,43.97
2023-04-10T05:02:32.478Z,41.53
2023-04-10T05:07:36.014Z,42.13
2023-04-10T05:12:41.915Z,39.45
2023-04-10T05:17:46.763Z,40.75
2023-04-10T05:22:50.322Z,39.33
2023-04-10T05:27:53.723Z,46.00
2023-04-10T05:32:58.561Z,38.67
2023-04-10T05:38:02.244Z,42.10
2023-04-10T05:43:05.888Z,39.47
2023-04-10T05:48:11.244Z,34.30
2023-04-10T05:53:15.904Z,36.53
2023-04-10T05:58:19.244Z,40.42
2023-04-10T06:03:24.129Z,36.85
2023-04-10T06:08:27.732Z,36.75
2023-04-10T06:13:32.424Z,41.00
2023-04-10T06:18:38.567Z,51.65
2023-04-10T06:23:42.152Z,58.75
2023-04-10T06:28:45.883Z,70.10
2023-04-10T06:33:51.228Z,62.08
2023-04-10T06:38:54.933Z,59.30
2023-04-10T06:43:59.669Z,63.72
2023-04-10T06:49:06.339Z,66.60
2023-04-10T06:54:09.690Z,56.50
2023-04-10T06:59:13.314Z,57.15
2023-04-10T07:04:18.053Z,59.03
2023-04-10T07:09:21.402Z,57.90
2023-04-10T07:14:24.832Z,57.30
2023-04-10T07:19:29.777Z,58.83
2023-04-10T07:24:33.432Z,56.03
2023-04-10T07:29:36.834Z,56.05
2023-04-10T07:34:42.796Z,56.40
2023-04-10T07:39:46.247Z,54.17
2023-04-10T07:44:49.659Z,54.38
2023-04-10T07:49:54.376Z,55.17
2023-04-10T07:54:57.778Z,59.38
2023-04-10T08:00:01.276Z,62.95
2023-04-10T08:05:06.789Z,57.40
2023-04-10T08:10:11.403Z,64.57
2023-04-10T08:15:14.838Z,56.65
2023-04-10T08:20:19.631Z,67.28
2023-04-10T08:25:23.103Z,59.08
2023-04-10T08:30:26.801Z,62.95
2023-04-10T08:35:31.544Z,65.80
2023-04-10T08:40:38.885Z,56.67
2023-04-10T08:45:42.612Z,62.28
2023-04-10T08:50:48.354Z,63.22
2023-04-10T08:55:51.801Z,63.83
2023-04-10T09:00:55.801Z,62.22
2023-04-10T09:06:05.083Z,57.42
2023-04-10T09:11:08.509Z,55.10
2023-04-10T09:16:13.044Z,60.05
2023-04-10T09:21:21.219Z,57.47
2023-04-10T09:26:29.102Z,54.28
2023-04-10T09:31:34.860Z,52.03
2023-04-10T09:36:41.422Z,51.45
2023-04-10T09:41:53.300Z,52.33
2023-04-10T09:46:57.244Z,49.75
2023-04-10T09:52:18.246Z,52.30
2023-04-10T09:57:23.526Z,51.08
2023-04-10T10:02:31.370Z,50.40
2023-04-10T10:07:37.772Z,52.88
2023-04-10T10:12:50.597Z,46.10
2023-04-10T10:18:01.476Z,53.60
2023-04-10T10:23:08.601Z,43.08
2023-04-10T10:28:14.281Z,48.95
2023-04-10T10:33:18.641Z,50.17
2023-04-10T10:38:23.977Z,54.33
2023-04-10T10:43:36.899Z,56.70
2023-04-10T10:48:40.260Z,44.65
2023-04-10T10:53:45.993Z,45.03
2023-04-10T10:58:50.490Z,50.42
2023-04-10T11:03:54.259Z,52.15
2023-04-10T11:08:59.147Z,45.85
2023-04-10T11:14:18.129Z,45.70
2023-04-10T11:19:25.204Z,44.60
2023-04-10T11:24:31.069Z,43.92
2023-04-10T11:29:34.922Z,45.20
2023-04-10T11:34:45.215Z,37.25
2023-04-10T11:39:50.321Z,37.88
2023-04-10T11:44:53.714Z,35.22
2023-04-10T11:49:58.675Z,35.45
2023-04-10T11:55:04.018Z,37.58
2023-04-10T12:00:08.982Z,35.72
2023-04-10T12:05:12.732Z,32.45
2023-04-10T12:10:17.998Z,35.65
2023-04-10T12:15:28.663Z,36.05
2023-04-10T12:20:32.242Z,32.17
2023-04-10T12:25:37.253Z,35.08
2023-04-10T12:30:52.877Z,31.65
2023-04-10T12:35:56.909Z,28.85
2023-04-10T12:41:02.164Z,27.98
2023-04-10T12:46:07.138Z,28.52
2023-04-10T12:51:10.573Z,29.17
2023-04-10T12:56:18.338Z,31.38
2023-04-10T13:01:21.977Z,31.60
2023-04-10T13:06:25.601Z,26.25
2023-04-10T13:11:30.564Z,25.73
2023-04-10T13:16:34.071Z,23.58
2023-04-10T13:21:37.471Z,25.77
2023-04-10T13:26:42.196Z,21.83
2023-04-10T13:31:45.648Z,20.77
2023-04-10T13:36:50.146Z,21.67
2023-04-10T13:41:55.046Z,23.27
2023-04-10T13:46:59.377Z,21.65
2023-04-10T13:52:02.821Z,21.35
2023-04-10T13:57:08.033Z,20.58
2023-04-10T14:02:11.899Z,23.77
2023-04-10T14:07:15.402Z,22.83
2023-04-10T14:12:21.025Z,20.42
2023-04-10T14:17:25.051Z,20.30
2023-04-10T14:22:30.304Z,22.70
2023-04-10T14:27:35.136Z,22.73
2023-04-10T14:32:40.589Z,20.40
2023-04-10T14:37:44.237Z,18.02
2023-04-10T14:42:49.059Z,18.65
2023-04-10T14:47:52.575Z,17.08
2023-04-10T14:52:55.971Z,16.52
2023-04-10T14:58:01.435Z,14.88
2023-04-10T15:03:06.542Z,14.20
2023-04-10T15:08:10.099Z,13.55
2023-04-10T15:13:14.789Z,13.73
2023-04-10T15:18:18.251Z,10.65
2023-04-10T15:23:21.682Z,10.52
2023-04-10T15:28:28.170Z,12.70
2023-04-10T15:33:31.618Z,11.80
2023-04-10T15:38:36.397Z,12.43
2023-04-10T15:43:42.490Z,12.80
2023-04-10T15:48:45.963Z,12.38
2023-04-10T15:53:49.360Z,12.40
2023-04-10T15:58:54.692Z,11.25
2023-04-10T16:03:58.486Z,10.15
2023-04-10T16:09:03.536Z,9.82
2023-04-10T16:14:10.975Z,8.68
2023-04-10T16:19:14.554Z,10.15
2023-04-10T16:24:18.367Z,11.02
2023-04-10T16:29:23.142Z,13.85
2023-04-10T16:34:26.596Z,11.52
2023-04-10T16:39:30.030Z,14.70
2023-04-10T16:44:35.138Z,13.43
2023-04-10T16:49:40.311Z,11.82
2023-04-10T16:54:43.756Z,14.00
2023-04-10T16:59:48.794Z,13.82
2023-04-10T17:04:52.213Z,15.60
2023-04-10T17:09:55.631Z,13.70
2023-04-10T17:15:00.612Z,17.77
2023-04-10T17:20:04.095Z,14.18
2023-04-10T17:25:08.632Z,16.63
2023-04-10T17:30:14.847Z,19.60
2023-04-10T17:35:20.311Z,17.08
2023-04-10T17:40:25.017Z,19.25
2023-04-10T17:45:29.786Z,18.67
2023-04-10T17:50:33.321Z,19.42
2023-04-10T17:55:40.208Z,21.05
2023-04-10T18:00:45.328Z,21.38
2023-04-10T18:05:48.697Z,24.80
2023-04-10T18:10:52.149Z,25.60
2023-04-10T18:15:56.912Z,29.88
2023-04-10T18:21:03.675Z,26.70
2023-04-10T18:26:07.428Z,25.77
2023-04-10T18:31:14.683Z,24.70
2023-04-10T18:36:20.911Z,25.27
2023-04-10T18:41:24.601Z,32.55
2023-04-10T18:46:30.220Z,34.17
2023-04-10T18:51:35.554Z,30.48
2023-04-10T18:56:39.672Z,25.75
2023-04-10T19:01:44.747Z,29.30
2023-04-10T19:06:48.254Z,37.13
2023-04-10T19:11:53.793Z,39.50
2023-04-10T19:16:58.750Z,36.13
2023-04-10T19:22:02.265Z,33.42
2023-04-10T19:27:06.442Z,33.63
2023-04-10T19:32:11.407Z,31.27
2023-04-10T19:37:14.786Z,29.77
2023-04-10T19:42:18.204Z,29.85
2023-04-10T19:47:23.275Z,32.28
2023-04-10T19:52:27.454Z,35.95
2023-04-10T19:57:30.874Z,41.95
2023-04-10T20:02:36.098Z,39.38
2023-04-10T20:07:39.614Z,40.00
2023-04-10T20:12:43.059Z,42.20
2023-04-10T20:17:47.893Z,42.42
2023-04-10T20:22:51.487Z,36.00
2023-04-10T20:27:55.155Z,43.10
2023-04-10T20:33:00.021Z,36.22
2023-04-10T20:38:03.670Z,36.25
2023-04-10T20:43:11.061Z,36.17
2023-04-10T20:48:15.936Z,35.08
2023-04-10T20:53:19.307Z,34.78
2023-04-10T20:58:23.122Z,36.95
2023-04-10T21:03:28.193Z,37.53
2023-04-10T21:08:31.807Z,35.28
2023-04-10T21:13:37.008Z,42.08
2023-04-10T21:18:43.124Z,39.08
2023-04-10T21:23:46.582Z,39.60
2023-04-10T21:28:50.002Z,48.58
2023-04-10T21:33:55.032Z,46.72
2023-04-10T21:38:58.662Z,41.22
2023-04-10T21:44:02.050Z,41.10
2023-04-10T21:49:06.835Z,40.47
2023-04-10T21:54:10.271Z,44.22
2023-04-10T21:59:13.638Z,50.63
2023-04-10T22:04:18.547Z,47.30
2023-04-10T22:09:22.764Z,43.92
2023-04-10T22:14:26.641Z,48.15
2023-04-10T22:19:31.430Z,45.03
2023-04-10T22:24:35.387Z,43.35
2023-04-10T22:29:39.065Z,44.42
2023-04-10T22:34:44.448Z,46.20
2023-04-10T22:39:48.038Z,44.72
2023-04-10T22:44:53.976Z,46.25
2023-04-10T22:49:58.781Z,39.92
2023-04-10T22:55:02.178Z,48.15
2023-04-10T23:00:07.146Z,40.97
2023-04-10T23:05:12.097Z,48.13
2023-04-10T23:10:15.806Z,46.25
2023-04-10T23:15:19.250Z,41.35
2023-04-10T23:20:24.101Z,48.22
2023-04-10T23:25:27.451Z,44.63
2023-04-10T23:30:30.904Z,47.08
2023-04-10T23:35:35.657Z,44.40
2023-04-10T23:40:39.070Z,48.85
2023-04-10T23:45:42.487Z,44.22
2023-04-10T23:50:47.498Z,49.10
2023-04-10T23:55:51.939Z,45.70
